Humidity-temperature Sensor

Selected Measurement Type: Air Temperature

 
Air Temperature [°C]     6 entries per hour
Showing data from 1/25/2021 (00:00:00 Z) to 1/22/2021 (00:01:00 Z)
Previous Next [ Day | 3-Days | 7-Days ]
First Last
Prev [ Day | 3-Days | 7-Days ] Next
First Last

Start Time:     :
End Time:     :     
Time (in GMT) :00 :50 :40 :30 :20 :10
Previous Next [ Day | 3-Days | 7-Days ]
First Last
Prev [ Day | 3-Days | 7-Days ] Next
First Last


123 => good data
MM => data is determined as missing
-- => data not received/configured
Back to Top Back to Top
1/25/2021 00:00 to 23:10 25.53 25.51 25.69 25.54 25.65 25.51
1/24/2021 23:00 to 22:10 25.55 25.55 25.71 25.52 25.59 25.59
1/24/2021 22:00 to 21:10 25.56 25.51 25.52 25.44 25.44 25.61
1/24/2021 21:00 to 20:10 25.42 25.39 25.48 25.50 25.42 25.47
1/24/2021 20:00 to 19:10 25.35 25.50 25.43 25.48 25.41 25.42
1/24/2021 19:00 to 18:10 25.35 25.37 25.36 25.36 25.30 25.33
1/24/2021 18:00 to 17:10 25.38 25.28 25.46 25.54 25.70 25.74
1/24/2021 17:00 to 16:10 25.70 25.74 25.85 25.88 25.75 26.05
1/24/2021 16:00 to 15:10 25.86 25.94 25.84 25.40 25.21 25.37
1/24/2021 15:00 to 14:10 25.18 25.00 25.06 25.02 24.97 24.94
1/24/2021 14:00 to 13:10 25.27 25.25 25.20 25.10 24.97 24.93
1/24/2021 13:00 to 12:10 24.97 24.98 24.99 25.05 24.96 24.95
1/24/2021 12:00 to 11:10 24.97 24.98 25.06 24.96 24.98 25.04
1/24/2021 11:00 to 10:10 24.95 25.03 24.91 24.98 24.99 24.89
1/24/2021 10:00 to 9:10 24.84 24.97 24.96 24.93 25.00 24.93
1/24/2021 09:00 to 8:10 24.93 24.99 24.87 24.99 25.03 24.99
1/24/2021 08:00 to 7:10 25.03 25.11 25.07 25.04 25.09 25.06
1/24/2021 07:00 to 6:10 25.11 25.04 25.11 25.19 25.16 25.08
1/24/2021 06:00 to 5:10 25.17 25.25 25.17 25.10 25.09 25.12
1/24/2021 05:00 to 4:10 25.18 25.14 25.20 25.33 25.29 25.27
1/24/2021 04:00 to 3:10 25.33 25.36 25.23 25.35 25.24 25.38
1/24/2021 03:00 to 2:10 25.34 25.27 25.41 25.34 25.36 25.26
1/24/2021 02:00 to 1:10 25.33 25.40 25.40 25.36 25.31 25.30
1/24/2021 01:00 to 0:10 25.25 25.28 25.33 25.21 25.34 25.47
1/24/2021 00:00 to 23:10 25.47 25.58 25.64 25.67 25.63 25.61
1/23/2021 23:00 to 22:10 25.55 25.53 25.38 25.39 25.28 24.91
1/23/2021 22:00 to 21:10 24.70 24.89 25.02 24.80 24.85 25.15
1/23/2021 21:00 to 20:10 25.73 25.52 25.53 25.41 25.52 25.48
1/23/2021 20:00 to 19:10 25.54 25.50 25.50 25.50 25.54 25.42
1/23/2021 19:00 to 18:10 25.46 25.58 25.65 25.67 25.65 25.64
1/23/2021 18:00 to 17:10 25.63 25.71 25.48 25.55 25.73 25.69
1/23/2021 17:00 to 16:10 25.79 25.65 25.75 25.53 25.69 25.60
1/23/2021 16:00 to 15:10 25.40 25.49 25.40 25.21 25.36 25.30
1/23/2021 15:00 to 14:10 25.24 25.24 25.24 25.16 25.17 25.15
1/23/2021 14:00 to 13:10 24.97 24.97 24.67 24.32 24.26 24.15
1/23/2021 13:00 to 12:10 24.50 24.57 24.79 24.89 24.84 25.02
1/23/2021 12:00 to 11:10 24.97 24.94 24.90 24.92 24.83 24.95
1/23/2021 11:00 to 10:10 24.98 24.90 24.96 25.00 24.89 24.97
1/23/2021 10:00 to 9:10 24.87 24.95 24.94 24.95 24.99 24.91
1/23/2021 09:00 to 8:10 25.03 24.86 24.89 24.95 25.00 24.94
1/23/2021 08:00 to 7:10 24.93 24.98 25.02 24.93 25.03 25.01
1/23/2021 07:00 to 6:10 25.06 24.98 25.02 25.13 25.06 25.02
1/23/2021 06:00 to 5:10 24.97 25.08 25.11 25.06 25.06 25.13
1/23/2021 05:00 to 4:10 25.14 25.06 25.12 25.17 25.17 25.15
1/23/2021 04:00 to 3:10 25.15 25.13 25.15 25.04 25.21 25.11
1/23/2021 03:00 to 2:10 25.17 25.17 25.19 25.17 25.20 25.15
1/23/2021 02:00 to 1:10 25.14 25.26 25.25 25.10 25.17 25.20
1/23/2021 01:00 to 0:10 25.24 25.28 25.12 25.15 25.20 25.38
1/23/2021 00:00 to 23:10 25.43 25.52 25.55 25.72 25.68 25.63
1/22/2021 23:00 to 22:10 25.68 25.52 25.52 25.44 25.44 25.35
1/22/2021 22:00 to 21:10 25.34 25.31 25.27 25.26 25.29 25.15
1/22/2021 21:00 to 20:10 25.24 25.17 25.16 25.18 25.19 25.29
1/22/2021 20:00 to 19:10 25.36 25.35 25.26 25.33 25.30 25.32
1/22/2021 19:00 to 18:10 25.33 25.42 25.41 25.58 25.59 25.63
1/22/2021 18:00 to 17:10 25.53 25.60 25.75 25.76 25.81 25.91
1/22/2021 17:00 to 16:10 25.90 25.86 25.83 25.75 25.93 25.72
1/22/2021 16:00 to 15:10 25.70 25.61 25.83 25.96 25.47 25.42
1/22/2021 15:00 to 14:10 25.24 25.28 25.32 25.29 25.28 25.15
1/22/2021 14:00 to 13:10 25.08 25.07 25.11 25.06 25.02 25.00
1/22/2021 13:00 to 12:10 24.95 24.95 24.91 24.90 25.00 24.83
1/22/2021 12:00 to 11:10 24.89 24.94 24.96 25.06 24.99 24.94
1/22/2021 11:00 to 10:10 25.07 24.92 24.95 24.82 24.84 24.99
1/22/2021 10:00 to 9:10 24.94 24.88 24.95 24.73 25.01 24.84
1/22/2021 09:00 to 8:10 24.92 24.92 24.96 24.88 24.96 24.94
1/22/2021 08:00 to 7:10 24.95 24.93 24.97 24.97 24.93 24.90
1/22/2021 07:00 to 6:10 24.95 24.87 24.92 24.98 25.05 25.03
1/22/2021 06:00 to 5:10 25.08 25.11 25.06 24.98 24.98 24.98
1/22/2021 05:00 to 4:10 25.00 24.90 24.84 25.01 24.89 24.94
1/22/2021 04:00 to 3:10 24.79 24.59 24.59 24.47 24.55 24.55
1/22/2021 03:00 to 2:10 24.67 24.52 24.50 24.36 24.44 24.72
1/22/2021 02:00 to 1:10 25.05 24.92 25.09 25.03 25.01 25.03
1/22/2021 01:00 to 0:10 24.98 24.99 24.99 24.84 24.68 24.47